createdAt,value
2023-05-10T00:00:11.135Z,6.13
2023-05-10T00:02:42.436Z,6.00
2023-05-10T00:05:10.583Z,6.05
2023-05-10T00:07:39.675Z,6.80
2023-05-10T00:10:09.025Z,6.30
2023-05-10T00:12:36.701Z,6.73
2023-05-10T00:15:05.114Z,6.55
2023-05-10T00:17:32.898Z,7.28
2023-05-10T00:20:01.335Z,6.72
2023-05-10T00:22:29.121Z,7.07
2023-05-10T00:24:58.198Z,6.63
2023-05-10T00:27:25.982Z,7.18
2023-05-10T00:29:54.409Z,8.02
2023-05-10T00:32:22.188Z,7.80
2023-05-10T00:34:50.124Z,7.43
2023-05-10T00:37:17.826Z,7.77
2023-05-10T00:39:45.571Z,7.20
2023-05-10T00:42:14.640Z,7.35
2023-05-10T00:44:43.071Z,8.20
2023-05-10T00:47:11.726Z,7.35
2023-05-10T00:49:39.592Z,7.60
2023-05-10T00:52:07.343Z,7.38
2023-05-10T00:54:35.341Z,8.07
2023-05-10T00:57:03.090Z,7.20
2023-05-10T00:59:32.547Z,7.63
2023-05-10T01:02:00.515Z,8.73
2023-05-10T01:04:29.297Z,9.95
2023-05-10T01:06:57.425Z,11.45
2023-05-10T01:09:27.167Z,11.25
2023-05-10T01:11:55.954Z,11.70
2023-05-10T01:14:24.271Z,12.33
2023-05-10T01:16:54.881Z,10.55
2023-05-10T01:19:25.778Z,8.07
2023-05-10T01:22:04.585Z,7.57
2023-05-10T01:25:08.058Z,8.00
2023-05-10T01:28:12.680Z,7.53
2023-05-10T01:31:14.451Z,7.13
2023-05-10T01:33:50.458Z,7.47
2023-05-10T01:36:27.044Z,7.88
2023-05-10T01:39:01.054Z,9.32
2023-05-10T01:41:49.901Z,8.03
2023-05-10T01:44:22.555Z,8.55
2023-05-10T01:46:55.357Z,7.55
2023-05-10T01:49:28.414Z,7.65
2023-05-10T01:52:01.209Z,7.75
2023-05-10T01:54:31.091Z,7.67
2023-05-10T01:57:04.145Z,7.93
2023-05-10T01:59:37.334Z,8.02
2023-05-10T02:02:07.841Z,8.27
2023-05-10T02:04:39.135Z,8.10
2023-05-10T02:07:07.657Z,7.87
2023-05-10T02:09:36.590Z,6.82
2023-05-10T02:12:07.596Z,7.47
2023-05-10T02:14:38.758Z,6.32
2023-05-10T02:17:08.062Z,5.80
2023-05-10T02:19:40.301Z,5.40
2023-05-10T02:22:10.038Z,5.18
2023-05-10T02:24:39.370Z,5.13
2023-05-10T02:27:08.342Z,5.38
2023-05-10T02:29:37.916Z,4.68
2023-05-10T02:32:07.092Z,4.43
2023-05-10T02:34:35.380Z,5.40
2023-05-10T02:37:05.394Z,4.80
2023-05-10T02:39:35.058Z,4.88
2023-05-10T02:42:03.746Z,4.20
2023-05-10T02:44:32.835Z,3.40
2023-05-10T02:47:00.949Z,3.63
2023-05-10T02:49:30.094Z,4.60
2023-05-10T02:52:03.303Z,3.90
2023-05-10T02:54:39.713Z,3.92
2023-05-10T02:57:09.199Z,3.70
2023-05-10T02:59:36.956Z,4.03
2023-05-10T03:02:05.637Z,4.00
2023-05-10T03:04:33.462Z,3.90
2023-05-10T03:07:01.417Z,3.90
2023-05-10T03:09:29.408Z,4.23
2023-05-10T03:12:05.179Z,3.85
2023-05-10T03:14:47.368Z,3.90
2023-05-10T03:17:21.895Z,3.70
2023-05-10T03:19:56.253Z,3.70
2023-05-10T03:22:27.924Z,3.70
2023-05-10T03:24:58.541Z,4.45
2023-05-10T03:27:32.102Z,4.05
2023-05-10T03:30:02.139Z,3.50
2023-05-10T03:32:32.980Z,3.78
2023-05-10T03:35:01.593Z,3.40
2023-05-10T03:37:29.924Z,3.85
2023-05-10T03:39:57.848Z,3.92
2023-05-10T03:42:26.100Z,3.90
2023-05-10T03:44:55.432Z,3.70
2023-05-10T03:47:23.337Z,3.97
2023-05-10T03:49:51.191Z,4.15
2023-05-10T03:52:19.417Z,4.32
2023-05-10T03:54:47.255Z,4.05
2023-05-10T03:57:14.959Z,4.25
2023-05-10T03:59:42.800Z,4.33
2023-05-10T04:02:11.983Z,4.93
2023-05-10T04:04:39.747Z,4.10
2023-05-10T04:07:07.591Z,4.75
2023-05-10T04:09:35.976Z,4.53
2023-05-10T04:12:04.224Z,4.90
2023-05-10T04:14:32.005Z,4.72
2023-05-10T04:16:59.845Z,5.53
2023-05-10T04:19:32.593Z,5.03
2023-05-10T04:22:00.839Z,5.00
2023-05-10T04:24:28.538Z,6.17
2023-05-10T04:26:57.784Z,5.57
2023-05-10T04:29:25.836Z,5.53
2023-05-10T04:31:54.303Z,5.68
2023-05-10T04:34:23.399Z,6.40
2023-05-10T04:36:52.466Z,5.70
2023-05-10T04:39:20.155Z,6.00
2023-05-10T04:41:47.838Z,6.18
2023-05-10T04:44:15.674Z,6.25
2023-05-10T04:46:43.480Z,5.90
2023-05-10T04:49:11.238Z,6.70
2023-05-10T04:51:38.909Z,6.57
2023-05-10T04:54:08.047Z,7.38
2023-05-10T04:56:36.951Z,6.40
2023-05-10T04:59:04.745Z,6.25
2023-05-10T05:01:32.640Z,6.87
2023-05-10T05:04:00.678Z,6.53
2023-05-10T05:06:28.601Z,7.47
2023-05-10T05:08:56.385Z,7.07
2023-05-10T05:11:26.496Z,7.13
2023-05-10T05:13:54.447Z,7.20
2023-05-10T05:16:22.488Z,8.48
2023-05-10T05:18:50.245Z,8.35
2023-05-10T05:21:19.203Z,7.93
2023-05-10T05:23:47.091Z,8.77
2023-05-10T05:26:15.954Z,9.47
2023-05-10T05:28:45.167Z,8.40
2023-05-10T05:31:13.057Z,9.02
2023-05-10T05:33:41.034Z,9.13
2023-05-10T05:36:09.219Z,9.30
2023-05-10T05:38:37.087Z,9.03
2023-05-10T05:41:05.078Z,9.32
2023-05-10T05:43:33.059Z,9.52
2023-05-10T05:46:02.421Z,10.32
2023-05-10T05:48:32.368Z,9.13
2023-05-10T05:51:00.581Z,8.63
2023-05-10T05:53:28.479Z,8.60
2023-05-10T05:55:58.263Z,8.25
2023-05-10T05:58:26.874Z,8.02
2023-05-10T06:00:55.022Z,8.38
2023-05-10T06:03:24.221Z,8.60
2023-05-10T06:05:51.948Z,8.75
2023-05-10T06:08:19.689Z,9.13
2023-05-10T06:10:47.476Z,9.05
2023-05-10T06:13:15.442Z,8.18
2023-05-10T06:15:43.234Z,8.10
2023-05-10T06:18:11.096Z,8.60
2023-05-10T06:20:40.204Z,8.73
2023-05-10T06:23:07.928Z,7.97
2023-05-10T06:25:35.702Z,8.30
2023-05-10T06:28:03.489Z,8.03
2023-05-10T06:30:31.348Z,7.55
2023-05-10T06:32:59.180Z,7.82
2023-05-10T06:35:27.098Z,8.13
2023-05-10T06:37:56.570Z,7.38
2023-05-10T06:40:24.244Z,7.30
2023-05-10T06:42:52.231Z,7.13
2023-05-10T06:45:20.210Z,7.13
2023-05-10T06:47:48.261Z,7.40
2023-05-10T06:50:16.177Z,6.80
2023-05-10T06:52:44.162Z,7.10
2023-05-10T06:55:13.498Z,7.30
2023-05-10T06:57:41.300Z,7.13
2023-05-10T07:00:10.717Z,8.35
2023-05-10T07:02:38.482Z,7.43
2023-05-10T07:05:07.191Z,7.10
2023-05-10T07:07:34.934Z,7.55
2023-05-10T07:10:02.759Z,8.23
2023-05-10T07:12:31.990Z,7.65
2023-05-10T07:14:59.813Z,8.45
2023-05-10T07:17:27.825Z,8.27
2023-05-10T07:19:55.776Z,8.35
2023-05-10T07:22:23.566Z,8.55
2023-05-10T07:24:51.393Z,7.65
2023-05-10T07:27:19.356Z,7.18
2023-05-10T07:29:48.415Z,7.53
2023-05-10T07:32:16.108Z,8.00
2023-05-10T07:34:43.862Z,8.48
2023-05-10T07:37:11.542Z,7.55
2023-05-10T07:39:39.419Z,7.53
2023-05-10T07:42:07.367Z,7.53
2023-05-10T07:44:35.065Z,7.32
2023-05-10T07:47:04.131Z,7.32
2023-05-10T07:49:31.952Z,7.53
2023-05-10T07:51:59.693Z,7.38
2023-05-10T07:54:27.589Z,7.80
2023-05-10T07:56:56.986Z,8.00
2023-05-10T07:59:24.686Z,6.90
2023-05-10T08:01:52.433Z,6.72
2023-05-10T08:04:21.514Z,6.95
2023-05-10T08:06:49.219Z,6.60
2023-05-10T08:09:18.699Z,6.60
2023-05-10T08:11:46.546Z,7.00
2023-05-10T08:14:14.253Z,6.80
2023-05-10T08:16:42.323Z,6.03
2023-05-10T08:19:10.156Z,6.60
2023-05-10T08:21:39.296Z,6.03
2023-05-10T08:24:07.629Z,6.97
2023-05-10T08:26:35.882Z,5.75
2023-05-10T08:29:04.088Z,5.85
2023-05-10T08:31:31.934Z,5.67
2023-05-10T08:33:59.687Z,5.70
2023-05-10T08:36:28.625Z,5.45
2023-05-10T08:38:58.486Z,5.75
2023-05-10T08:41:27.648Z,5.90
2023-05-10T08:43:56.105Z,5.30
2023-05-10T08:46:24.831Z,5.28
2023-05-10T08:48:53.451Z,4.90
2023-05-10T08:51:24.790Z,5.68
2023-05-10T08:53:52.579Z,5.90
2023-05-10T08:56:22.045Z,5.20
2023-05-10T08:58:50.746Z,5.53
2023-05-10T09:01:20.232Z,5.53
2023-05-10T09:03:49.170Z,4.95
2023-05-10T09:06:17.138Z,5.15
2023-05-10T09:08:45.527Z,6.10
2023-05-10T09:11:14.585Z,5.97
2023-05-10T09:13:44.361Z,5.70
2023-05-10T09:16:21.199Z,5.70
2023-05-10T09:18:50.327Z,6.80
2023-05-10T09:21:18.150Z,6.60
2023-05-10T09:23:48.651Z,6.30
2023-05-10T09:26:17.101Z,7.10
2023-05-10T09:28:57.405Z,7.38
2023-05-10T09:31:26.780Z,6.75
2023-05-10T09:33:55.706Z,6.73
2023-05-10T09:36:23.561Z,7.28
2023-05-10T09:38:52.831Z,8.05
2023-05-10T09:41:21.699Z,7.43
2023-05-10T09:43:49.971Z,7.50
2023-05-10T09:46:19.201Z,6.57
2023-05-10T09:48:48.928Z,7.35
2023-05-10T09:51:23.069Z,6.43
2023-05-10T09:54:10.165Z,6.10
2023-05-10T09:56:40.753Z,5.88
2023-05-10T09:59:09.983Z,6.10
2023-05-10T10:01:39.762Z,6.30
2023-05-10T10:04:11.473Z,6.80
2023-05-10T10:06:39.597Z,6.95
2023-05-10T10:09:08.144Z,6.32
2023-05-10T10:11:37.308Z,7.13
2023-05-10T10:14:05.580Z,7.30
2023-05-10T10:16:34.435Z,7.25
2023-05-10T10:19:03.973Z,6.60
2023-05-10T10:21:32.021Z,6.85
2023-05-10T10:23:59.824Z,6.17
2023-05-10T10:26:27.985Z,6.78
2023-05-10T10:29:09.570Z,7.45
2023-05-10T10:31:41.901Z,6.63
2023-05-10T10:34:15.070Z,6.70
2023-05-10T10:36:44.365Z,5.80
2023-05-10T10:39:13.455Z,6.55
2023-05-10T10:41:50.694Z,6.05
2023-05-10T10:44:26.279Z,5.63
2023-05-10T10:47:01.500Z,5.80
2023-05-10T10:49:33.604Z,6.27
2023-05-10T10:52:22.730Z,5.78
2023-05-10T10:54:54.442Z,5.25
2023-05-10T10:57:23.607Z,5.68
2023-05-10T10:59:51.765Z,5.55
2023-05-10T11:02:36.373Z,5.07
2023-05-10T11:05:27.477Z,5.88
2023-05-10T11:07:56.158Z,5.82
2023-05-10T11:10:24.825Z,5.10
2023-05-10T11:13:01.937Z,5.10
2023-05-10T11:15:33.522Z,4.70
2023-05-10T11:18:02.157Z,5.00
2023-05-10T11:20:40.992Z,4.72
2023-05-10T11:23:17.071Z,4.68
2023-05-10T11:25:45.958Z,4.68
2023-05-10T11:28:13.785Z,4.10
2023-05-10T11:30:42.786Z,4.10
2023-05-10T11:33:11.145Z,4.28
2023-05-10T11:35:43.401Z,4.15
2023-05-10T11:38:12.778Z,4.40
2023-05-10T11:40:41.891Z,4.17
2023-05-10T11:43:11.214Z,3.50
2023-05-10T11:45:39.523Z,3.30
2023-05-10T11:48:07.467Z,3.30
2023-05-10T11:50:35.261Z,3.53
2023-05-10T11:53:04.328Z,3.93
2023-05-10T11:55:35.855Z,3.58
2023-05-10T11:58:04.437Z,4.00
2023-05-10T12:00:33.049Z,3.92
2023-05-10T12:03:02.864Z,3.70
2023-05-10T12:05:34.092Z,3.83
2023-05-10T12:08:16.357Z,3.85
2023-05-10T12:10:44.087Z,4.10
2023-05-10T12:13:16.272Z,3.78
2023-05-10T12:15:45.124Z,3.47
2023-05-10T12:18:13.645Z,3.80
2023-05-10T12:20:42.195Z,3.50
2023-05-10T12:23:11.648Z,3.67
2023-05-10T12:25:41.155Z,3.40
2023-05-10T12:28:10.862Z,4.07
2023-05-10T12:30:39.708Z,4.90
2023-05-10T12:33:10.869Z,5.35
2023-05-10T12:35:49.099Z,5.15
2023-05-10T12:38:31.560Z,5.50
2023-05-10T12:41:01.811Z,4.60
2023-05-10T12:43:29.929Z,4.47
2023-05-10T12:45:58.201Z,4.80
2023-05-10T12:48:26.375Z,3.85
2023-05-10T12:50:54.047Z,3.47
2023-05-10T12:53:21.741Z,3.50
2023-05-10T12:55:49.451Z,3.30
2023-05-10T12:58:34.299Z,2.83
2023-05-10T13:01:03.530Z,3.00
2023-05-10T13:03:31.402Z,3.13
2023-05-10T13:05:59.177Z,3.30
2023-05-10T13:08:26.942Z,3.00
2023-05-10T13:10:54.924Z,2.70
2023-05-10T13:13:24.023Z,3.00
2023-05-10T13:15:51.693Z,2.80
2023-05-10T13:18:19.738Z,3.00
2023-05-10T13:20:47.564Z,3.70
2023-05-10T13:23:15.353Z,4.00
2023-05-10T13:25:43.214Z,4.00
2023-05-10T13:28:10.960Z,4.32
2023-05-10T13:30:40.004Z,4.20
2023-05-10T13:33:07.793Z,4.07
2023-05-10T13:35:35.529Z,4.80
2023-05-10T13:38:03.270Z,3.33
2023-05-10T13:40:31.071Z,3.88
2023-05-10T13:42:58.772Z,3.20
2023-05-10T13:45:26.532Z,3.53
2023-05-10T13:47:55.662Z,3.40
2023-05-10T13:50:23.394Z,2.92
2023-05-10T13:52:52.094Z,3.13
2023-05-10T13:55:20.249Z,3.65
2023-05-10T13:57:48.528Z,2.80
2023-05-10T14:00:17.259Z,3.22
2023-05-10T14:02:45.213Z,2.60
2023-05-10T14:05:14.353Z,2.38
2023-05-10T14:07:42.166Z,2.50
2023-05-10T14:10:10.505Z,2.50
2023-05-10T14:12:38.330Z,2.45
2023-05-10T14:15:07.675Z,2.38
2023-05-10T14:17:35.613Z,2.22
2023-05-10T14:20:04.680Z,2.70
2023-05-10T14:22:33.792Z,2.50
2023-05-10T14:25:02.812Z,2.10
2023-05-10T14:27:31.212Z,2.00
2023-05-10T14:29:59.054Z,1.50
2023-05-10T14:32:28.391Z,1.95
2023-05-10T14:34:56.626Z,2.20
2023-05-10T14:37:24.340Z,2.28
2023-05-10T14:39:53.378Z,2.10
2023-05-10T14:42:21.442Z,2.00
2023-05-10T14:44:49.239Z,2.20
2023-05-10T14:47:16.943Z,2.50
2023-05-10T14:49:44.841Z,2.53
2023-05-10T14:52:13.181Z,2.30
2023-05-10T14:54:41.239Z,2.40
2023-05-10T14:57:10.279Z,2.22
2023-05-10T14:59:38.013Z,2.60
2023-05-10T15:02:06.467Z,2.40
2023-05-10T15:04:34.562Z,2.92
2023-05-10T15:07:02.608Z,2.70
2023-05-10T15:09:30.330Z,2.75
2023-05-10T15:11:58.080Z,2.70
2023-05-10T15:14:27.183Z,2.78
2023-05-10T15:16:54.896Z,3.28
2023-05-10T15:19:22.632Z,4.20
2023-05-10T15:21:50.616Z,4.10
2023-05-10T15:24:18.349Z,4.20
2023-05-10T15:26:46.280Z,3.88
2023-05-10T15:29:20.510Z,4.22
2023-05-10T15:31:52.960Z,4.35
2023-05-10T15:34:21.063Z,4.35
2023-05-10T15:36:48.881Z,4.90
2023-05-10T15:39:16.703Z,4.93
2023-05-10T15:41:44.450Z,5.13
2023-05-10T15:44:12.148Z,5.60
2023-05-10T15:46:39.919Z,4.38
2023-05-10T15:49:09.089Z,4.80
2023-05-10T15:51:36.921Z,4.70
2023-05-10T15:54:08.306Z,4.88
2023-05-10T15:56:36.975Z,4.47
2023-05-10T15:59:06.014Z,4.72
2023-05-10T16:01:33.937Z,4.57
2023-05-10T16:04:01.895Z,4.93
2023-05-10T16:06:31.302Z,4.50
2023-05-10T16:08:59.032Z,4.40
2023-05-10T16:11:26.807Z,4.85
2023-05-10T16:13:54.549Z,4.20
2023-05-10T16:16:22.514Z,4.07
2023-05-10T16:18:50.439Z,5.20
2023-05-10T16:21:18.389Z,4.40
2023-05-10T16:23:47.653Z,4.35
2023-05-10T16:26:15.435Z,4.20
2023-05-10T16:28:43.141Z,4.20
2023-05-10T16:31:11.249Z,3.92
2023-05-10T16:33:39.032Z,3.67
2023-05-10T16:36:07.109Z,3.65
2023-05-10T16:38:35.045Z,3.40
2023-05-10T16:41:04.542Z,3.33
2023-05-10T16:43:33.221Z,3.33
2023-05-10T16:46:01.031Z,3.40
2023-05-10T16:48:28.961Z,2.90
2023-05-10T16:50:56.686Z,3.23
2023-05-10T16:53:24.700Z,3.15
2023-05-10T16:55:52.428Z,3.20
2023-05-10T16:58:21.573Z,3.03
2023-05-10T17:00:49.402Z,2.80
2023-05-10T17:03:17.456Z,2.93
2023-05-10T17:05:45.450Z,3.33
2023-05-10T17:08:13.199Z,3.15
2023-05-10T17:10:41.191Z,2.65
2023-05-10T17:13:10.426Z,3.30
2023-05-10T17:15:40.353Z,2.70
2023-05-10T17:18:08.298Z,3.10
2023-05-10T17:20:36.125Z,2.95
2023-05-10T17:23:03.908Z,2.28
2023-05-10T17:25:31.821Z,3.40
2023-05-10T17:27:59.581Z,3.63
2023-05-10T17:30:28.739Z,3.05
2023-05-10T17:32:57.890Z,3.17
2023-05-10T17:35:25.956Z,2.80
2023-05-10T17:37:53.730Z,3.00
2023-05-10T17:40:21.612Z,3.10
2023-05-10T17:42:49.469Z,3.20
2023-05-10T17:45:18.217Z,2.60
2023-05-10T17:47:46.316Z,2.90
2023-05-10T17:50:15.684Z,3.00
2023-05-10T17:52:43.616Z,3.67
2023-05-10T17:55:12.582Z,3.42
2023-05-10T17:57:40.332Z,3.65
2023-05-10T18:00:10.056Z,3.47
2023-05-10T18:02:38.325Z,3.45
2023-05-10T18:05:07.181Z,3.53
2023-05-10T18:07:36.829Z,4.70
2023-05-10T18:10:04.832Z,4.45
2023-05-10T18:12:32.546Z,4.70
2023-05-10T18:15:00.565Z,4.30
2023-05-10T18:17:28.331Z,4.43
2023-05-10T18:19:56.086Z,4.30
2023-05-10T18:22:24.039Z,4.65
2023-05-10T18:24:53.222Z,4.35
2023-05-10T18:27:20.952Z,5.05
2023-05-10T18:29:48.649Z,6.57
2023-05-10T18:32:16.666Z,5.88
2023-05-10T18:34:44.399Z,5.72
2023-05-10T18:37:12.411Z,4.90
2023-05-10T18:39:40.316Z,5.15
2023-05-10T18:42:09.959Z,4.27
2023-05-10T18:44:37.663Z,4.05
2023-05-10T18:47:05.473Z,4.30
2023-05-10T18:49:33.218Z,4.03
2023-05-10T18:52:01.076Z,3.97
2023-05-10T18:54:29.699Z,4.17
2023-05-10T18:56:58.624Z,4.43
2023-05-10T18:59:28.703Z,4.25
2023-05-10T19:01:57.553Z,4.30
2023-05-10T19:04:25.734Z,4.57
2023-05-10T19:06:53.799Z,4.40
2023-05-10T19:09:21.589Z,4.45
2023-05-10T19:11:49.804Z,4.85
2023-05-10T19:14:17.492Z,4.60
2023-05-10T19:16:49.098Z,4.75
2023-05-10T19:19:18.115Z,4.07
2023-05-10T19:21:46.296Z,5.07
2023-05-10T19:24:14.212Z,5.18
2023-05-10T19:26:42.120Z,5.38
2023-05-10T19:29:09.998Z,6.03
2023-05-10T19:31:37.803Z,5.17
2023-05-10T19:34:06.993Z,4.72
2023-05-10T19:36:35.360Z,4.55
2023-05-10T19:39:03.347Z,4.75
2023-05-10T19:41:31.188Z,5.30
2023-05-10T19:43:59.797Z,4.60
2023-05-10T19:46:27.997Z,5.22
2023-05-10T19:48:55.826Z,5.53
2023-05-10T19:51:24.949Z,5.15
2023-05-10T19:53:52.690Z,4.82
2023-05-10T19:56:21.478Z,5.03
2023-05-10T19:58:49.250Z,5.40
2023-05-10T20:01:17.012Z,4.90
2023-05-10T20:03:44.855Z,4.85
2023-05-10T20:06:13.079Z,4.90
2023-05-10T20:08:42.148Z,5.23
2023-05-10T20:11:10.221Z,4.85
2023-05-10T20:13:38.047Z,5.53
2023-05-10T20:16:06.756Z,5.53
2023-05-10T20:18:34.413Z,5.20
2023-05-10T20:21:02.392Z,6.00
2023-05-10T20:23:30.179Z,5.93
2023-05-10T20:25:59.618Z,6.13
2023-05-10T20:28:28.264Z,5.90
2023-05-10T20:30:56.653Z,6.82
2023-05-10T20:33:24.580Z,6.27
2023-05-10T20:35:52.442Z,5.47
2023-05-10T20:38:21.040Z,5.55
2023-05-10T20:40:48.984Z,4.15
2023-05-10T20:43:18.767Z,4.00
2023-05-10T20:45:46.663Z,4.50
2023-05-10T20:48:14.659Z,4.90
2023-05-10T20:50:44.657Z,4.90
2023-05-10T20:53:13.543Z,5.15
2023-05-10T20:55:41.344Z,4.95
2023-05-10T20:58:09.189Z,5.30
2023-05-10T21:00:38.293Z,5.43
2023-05-10T21:03:06.262Z,5.43
2023-05-10T21:05:34.146Z,5.18
2023-05-10T21:08:02.292Z,5.25
2023-05-10T21:10:30.045Z,5.00
2023-05-10T21:12:57.813Z,4.93
2023-05-10T21:15:25.977Z,4.38
2023-05-10T21:17:55.669Z,4.20
2023-05-10T21:20:24.049Z,4.63
2023-05-10T21:22:51.824Z,4.00
2023-05-10T21:25:19.745Z,4.82
2023-05-10T21:27:47.520Z,4.50
2023-05-10T21:30:16.019Z,4.95
2023-05-10T21:32:44.164Z,5.30
2023-05-10T21:35:13.277Z,4.93
2023-05-10T21:37:41.058Z,4.80
2023-05-10T21:40:09.715Z,4.13
2023-05-10T21:42:37.533Z,4.00
2023-05-10T21:45:05.901Z,3.88
2023-05-10T21:47:33.717Z,4.30
2023-05-10T21:50:01.722Z,4.30
2023-05-10T21:52:30.983Z,4.70
2023-05-10T21:54:59.118Z,4.82
2023-05-10T21:57:27.035Z,4.72
2023-05-10T21:59:54.772Z,4.70
2023-05-10T22:02:22.695Z,5.00
2023-05-10T22:04:50.894Z,4.75
2023-05-10T22:07:18.794Z,4.43
2023-05-10T22:09:47.983Z,4.60
2023-05-10T22:12:15.754Z,4.57
2023-05-10T22:14:43.576Z,5.38
2023-05-10T22:17:11.467Z,5.18
2023-05-10T22:19:39.334Z,6.03
2023-05-10T22:22:07.091Z,6.65
2023-05-10T22:24:34.835Z,6.27
2023-05-10T22:27:05.117Z,5.45
2023-05-10T22:29:32.950Z,5.57
2023-05-10T22:32:05.411Z,6.20
2023-05-10T22:34:33.360Z,6.00
2023-05-10T22:37:01.280Z,5.80
2023-05-10T22:39:29.006Z,5.53
2023-05-10T22:41:56.703Z,6.05
2023-05-10T22:44:25.900Z,6.00
2023-05-10T22:46:53.645Z,5.38
2023-05-10T22:49:21.380Z,4.97
2023-05-10T22:51:49.130Z,4.20
2023-05-10T22:54:16.897Z,4.55
2023-05-10T22:56:44.844Z,4.80
2023-05-10T22:59:12.710Z,4.80
2023-05-10T23:01:41.935Z,4.87
2023-05-10T23:04:09.724Z,4.53
2023-05-10T23:06:39.492Z,5.28
2023-05-10T23:09:07.270Z,5.25
2023-05-10T23:11:35.037Z,4.47
2023-05-10T23:14:03.005Z,4.30
2023-05-10T23:16:30.829Z,4.32
2023-05-10T23:19:00.016Z,4.75
2023-05-10T23:21:29.313Z,5.00
2023-05-10T23:23:58.367Z,4.72
2023-05-10T23:26:26.118Z,4.97
2023-05-10T23:28:53.822Z,4.82
2023-05-10T23:31:21.565Z,4.85
2023-05-10T23:33:49.330Z,4.60
2023-05-10T23:36:18.468Z,4.90
2023-05-10T23:38:46.168Z,4.53
2023-05-10T23:41:14.321Z,5.28
2023-05-10T23:43:42.215Z,5.22
2023-05-10T23:46:09.960Z,5.80
2023-05-10T23:48:37.908Z,6.13
2023-05-10T23:51:06.259Z,5.80
2023-05-10T23:53:35.569Z,6.63
2023-05-10T23:56:03.281Z,6.22
2023-05-10T23:58:31.438Z,5.97
